sensor_id;sensor_type;location;lat;lon;timestamp;P1;durP1;ratioP1;P2;durP2;ratioP2
15931;SDS011;8065;49.520;11.284;2023-05-02T00:00:15;11.60;;;9.80;;
15931;SDS011;8065;49.520;11.284;2023-05-02T00:02:41;11.83;;;9.83;;
15931;SDS011;8065;49.520;11.284;2023-05-02T00:05:08;13.37;;;10.20;;
15931;SDS011;8065;49.520;11.284;2023-05-02T00:07:34;11.83;;;10.03;;
15931;SDS011;8065;49.520;11.284;2023-05-02T00:10:01;11.67;;;9.17;;
15931;SDS011;8065;49.520;11.284;2023-05-02T00:12:27;12.03;;;10.10;;
15931;SDS011;8065;49.520;11.284;2023-05-02T00:14:54;11.57;;;9.77;;
15931;SDS011;8065;49.520;11.284;2023-05-02T00:17:22;11.43;;;9.93;;
15931;SDS011;8065;49.520;11.284;2023-05-02T00:19:48;12.77;;;10.27;;
15931;SDS011;8065;49.520;11.284;2023-05-02T00:22:14;10.73;;;9.63;;
15931;SDS011;8065;49.520;11.284;2023-05-02T00:24:41;11.43;;;10.23;;
15931;SDS011;8065;49.520;11.284;2023-05-02T00:27:07;11.43;;;10.17;;
15931;SDS011;8065;49.520;11.284;2023-05-02T00:29:34;13.13;;;10.67;;
15931;SDS011;8065;49.520;11.284;2023-05-02T00:32:01;12.27;;;10.97;;
15931;SDS011;8065;49.520;11.284;2023-05-02T00:34:29;11.93;;;10.10;;
15931;SDS011;8065;49.520;11.284;2023-05-02T00:36:56;11.83;;;9.70;;
15931;SDS011;8065;49.520;11.284;2023-05-02T00:39:23;10.70;;;9.60;;
15931;SDS011;8065;49.520;11.284;2023-05-02T00:41:54;10.30;;;9.30;;
15931;SDS011;8065;49.520;11.284;2023-05-02T00:44:21;10.13;;;9.13;;
15931;SDS011;8065;49.520;11.284;2023-05-02T00:46:48;9.27;;;8.37;;
15931;SDS011;8065;49.520;11.284;2023-05-02T00:49:15;10.47;;;9.40;;
15931;SDS011;8065;49.520;11.284;2023-05-02T00:51:43;11.80;;;8.93;;
15931;SDS011;8065;49.520;11.284;2023-05-02T00:54:09;10.73;;;9.03;;
15931;SDS011;8065;49.520;11.284;2023-05-02T00:56:37;10.20;;;9.17;;
15931;SDS011;8065;49.520;11.284;2023-05-02T00:59:03;9.57;;;8.60;;
15931;SDS011;8065;49.520;11.284;2023-05-02T01:01:35;10.83;;;9.67;;
15931;SDS011;8065;49.520;11.284;2023-05-02T01:04:10;14.17;;;9.47;;
15931;SDS011;8065;49.520;11.284;2023-05-02T01:06:51;11.87;;;10.27;;
15931;SDS011;8065;49.520;11.284;2023-05-02T01:09:30;10.97;;;9.33;;
15931;SDS011;8065;49.520;11.284;2023-05-02T01:12:05;11.60;;;9.30;;
15931;SDS011;8065;49.520;11.284;2023-05-02T01:14:40;10.73;;;9.63;;
15931;SDS011;8065;49.520;11.284;2023-05-02T01:17:08;10.00;;;8.47;;
15931;SDS011;8065;49.520;11.284;2023-05-02T01:19:39;10.43;;;9.30;;
15931;SDS011;8065;49.520;11.284;2023-05-02T01:22:10;10.03;;;8.63;;
15931;SDS011;8065;49.520;11.284;2023-05-02T01:24:40;10.00;;;9.00;;
15931;SDS011;8065;49.520;11.284;2023-05-02T01:27:14;9.67;;;8.67;;
15931;SDS011;8065;49.520;11.284;2023-05-02T01:29:51;10.50;;;9.40;;
15931;SDS011;8065;49.520;11.284;2023-05-02T01:32:19;11.10;;;8.87;;
15931;SDS011;8065;49.520;11.284;2023-05-02T01:34:48;10.20;;;9.20;;
15931;SDS011;8065;49.520;11.284;2023-05-02T01:37:17;9.63;;;8.63;;
15931;SDS011;8065;49.520;11.284;2023-05-02T01:39:45;9.10;;;8.20;;
15931;SDS011;8065;49.520;11.284;2023-05-02T01:42:16;9.40;;;8.50;;
15931;SDS011;8065;49.520;11.284;2023-05-02T01:44:44;9.83;;;8.83;;
15931;SDS011;8065;49.520;11.284;2023-05-02T01:47:13;11.10;;;9.20;;
15931;SDS011;8065;49.520;11.284;2023-05-02T01:49:40;11.50;;;9.47;;
15931;SDS011;8065;49.520;11.284;2023-05-02T01:52:10;11.90;;;9.50;;
15931;SDS011;8065;49.520;11.284;2023-05-02T01:54:37;9.03;;;8.07;;
15931;SDS011;8065;49.520;11.284;2023-05-02T01:57:06;10.50;;;8.50;;
15931;SDS011;8065;49.520;11.284;2023-05-02T01:59:34;9.70;;;8.30;;
15931;SDS011;8065;49.520;11.284;2023-05-02T02:02:03;11.77;;;9.13;;
15931;SDS011;8065;49.520;11.284;2023-05-02T02:04:34;10.67;;;9.43;;
15931;SDS011;8065;49.520;11.284;2023-05-02T02:07:05;12.07;;;9.33;;
15931;SDS011;8065;49.520;11.284;2023-05-02T02:09:33;11.60;;;9.80;;
15931;SDS011;8065;49.520;11.284;2023-05-02T02:12:01;14.50;;;10.70;;
15931;SDS011;8065;49.520;11.284;2023-05-02T02:14:32;12.93;;;11.13;;
15931;SDS011;8065;49.520;11.284;2023-05-02T02:17:00;12.77;;;11.37;;
15931;SDS011;8065;49.520;11.284;2023-05-02T02:19:30;13.47;;;10.90;;
15931;SDS011;8065;49.520;11.284;2023-05-02T02:21:59;13.33;;;10.73;;
15931;SDS011;8065;49.520;11.284;2023-05-02T02:24:29;12.20;;;10.90;;
15931;SDS011;8065;49.520;11.284;2023-05-02T02:26:57;12.17;;;10.80;;
15931;SDS011;8065;49.520;11.284;2023-05-02T02:29:23;12.53;;;11.00;;
15931;SDS011;8065;49.520;11.284;2023-05-02T02:31:50;14.20;;;10.53;;
15931;SDS011;8065;49.520;11.284;2023-05-02T02:34:16;12.17;;;10.30;;
15931;SDS011;8065;49.520;11.284;2023-05-02T02:36:44;12.03;;;10.70;;
15931;SDS011;8065;49.520;11.284;2023-05-02T02:39:17;14.80;;;10.70;;
15931;SDS011;8065;49.520;11.284;2023-05-02T02:41:57;14.17;;;10.77;;
15931;SDS011;8065;49.520;11.284;2023-05-02T02:44:32;11.00;;;9.90;;
15931;SDS011;8065;49.520;11.284;2023-05-02T02:47:08;11.20;;;9.10;;
15931;SDS011;8065;49.520;11.284;2023-05-02T02:49:38;11.40;;;10.20;;
15931;SDS011;8065;49.520;11.284;2023-05-02T02:52:15;11.97;;;10.23;;
15931;SDS011;8065;49.520;11.284;2023-05-02T02:54:49;10.37;;;9.37;;
15931;SDS011;8065;49.520;11.284;2023-05-02T02:57:20;11.47;;;10.17;;
15931;SDS011;8065;49.520;11.284;2023-05-02T02:59:54;11.20;;;9.70;;
15931;SDS011;8065;49.520;11.284;2023-05-02T03:02:28;10.47;;;9.37;;
15931;SDS011;8065;49.520;11.284;2023-05-02T03:04:57;10.63;;;9.57;;
15931;SDS011;8065;49.520;11.284;2023-05-02T03:07:26;9.80;;;8.77;;
15931;SDS011;8065;49.520;11.284;2023-05-02T03:09:54;10.07;;;9.07;;
15931;SDS011;8065;49.520;11.284;2023-05-02T03:12:20;10.13;;;9.07;;
15931;SDS011;8065;49.520;11.284;2023-05-02T03:14:47;11.20;;;9.90;;
15931;SDS011;8065;49.520;11.284;2023-05-02T03:17:13;10.63;;;9.53;;
15931;SDS011;8065;49.520;11.284;2023-05-02T03:19:40;12.20;;;9.20;;
15931;SDS011;8065;49.520;11.284;2023-05-02T03:22:06;10.10;;;8.80;;
15931;SDS011;8065;49.520;11.284;2023-05-02T03:24:33;12.13;;;9.77;;
15931;SDS011;8065;49.520;11.284;2023-05-02T03:27:01;11.10;;;9.93;;
15931;SDS011;8065;49.520;11.284;2023-05-02T03:29:27;11.57;;;9.40;;
15931;SDS011;8065;49.520;11.284;2023-05-02T03:31:54;10.10;;;9.20;;
15931;SDS011;8065;49.520;11.284;2023-05-02T03:34:20;10.93;;;9.37;;
15931;SDS011;8065;49.520;11.284;2023-05-02T03:36:47;11.20;;;9.17;;
15931;SDS011;8065;49.520;11.284;2023-05-02T03:39:14;10.67;;;9.27;;
15931;SDS011;8065;49.520;11.284;2023-05-02T03:41:40;11.70;;;9.87;;
15931;SDS011;8065;49.520;11.284;2023-05-02T03:44:09;10.93;;;9.83;;
15931;SDS011;8065;49.520;11.284;2023-05-02T03:46:35;10.70;;;9.57;;
15931;SDS011;8065;49.520;11.284;2023-05-02T03:49:02;11.47;;;9.80;;
15931;SDS011;8065;49.520;11.284;2023-05-02T03:51:28;11.70;;;9.63;;
15931;SDS011;8065;49.520;11.284;2023-05-02T03:53:54;12.20;;;9.50;;
15931;SDS011;8065;49.520;11.284;2023-05-02T03:56:22;10.73;;;9.37;;
15931;SDS011;8065;49.520;11.284;2023-05-02T03:58:48;11.37;;;9.83;;
15931;SDS011;8065;49.520;11.284;2023-05-02T04:01:16;10.70;;;9.60;;
15931;SDS011;8065;49.520;11.284;2023-05-02T04:03:42;12.10;;;10.57;;
15931;SDS011;8065;49.520;11.284;2023-05-02T04:06:09;10.73;;;9.63;;
15931;SDS011;8065;49.520;11.284;2023-05-02T04:08:37;11.47;;;10.23;;
15931;SDS011;8065;49.520;11.284;2023-05-02T04:11:03;10.87;;;9.77;;
15931;SDS011;8065;49.520;11.284;2023-05-02T04:13:30;11.73;;;10.53;;
15931;SDS011;8065;49.520;11.284;2023-05-02T04:15:56;11.30;;;9.60;;
15931;SDS011;8065;49.520;11.284;2023-05-02T04:18:24;11.97;;;10.00;;
15931;SDS011;8065;49.520;11.284;2023-05-02T04:20:51;11.40;;;10.20;;
15931;SDS011;8065;49.520;11.284;2023-05-02T04:23:18;10.77;;;9.70;;
15931;SDS011;8065;49.520;11.284;2023-05-02T04:25:49;10.63;;;9.23;;
15931;SDS011;8065;49.520;11.284;2023-05-02T04:28:16;10.93;;;9.30;;
15931;SDS011;8065;49.520;11.284;2023-05-02T04:30:43;9.60;;;8.70;;
15931;SDS011;8065;49.520;11.284;2023-05-02T04:33:09;12.90;;;9.20;;
15931;SDS011;8065;49.520;11.284;2023-05-02T04:35:39;11.17;;;9.43;;
15931;SDS011;8065;49.520;11.284;2023-05-02T04:38:06;10.80;;;9.70;;
15931;SDS011;8065;49.520;11.284;2023-05-02T04:40:32;10.30;;;9.30;;
15931;SDS011;8065;49.520;11.284;2023-05-02T04:42:59;9.93;;;8.93;;
15931;SDS011;8065;49.520;11.284;2023-05-02T04:45:27;11.40;;;10.20;;
15931;SDS011;8065;49.520;11.284;2023-05-02T04:47:53;14.07;;;10.70;;
15931;SDS011;8065;49.520;11.284;2023-05-02T04:50:20;12.77;;;10.80;;
15931;SDS011;8065;49.520;11.284;2023-05-02T04:52:47;12.67;;;10.53;;
15931;SDS011;8065;49.520;11.284;2023-05-02T04:55:14;11.53;;;10.37;;
15931;SDS011;8065;49.520;11.284;2023-05-02T04:57:40;12.67;;;11.33;;
15931;SDS011;8065;49.520;11.284;2023-05-02T05:00:07;11.73;;;10.20;;
15931;SDS011;8065;49.520;11.284;2023-05-02T05:02:34;11.73;;;10.53;;
15931;SDS011;8065;49.520;11.284;2023-05-02T05:05:00;13.50;;;11.50;;
15931;SDS011;8065;49.520;11.284;2023-05-02T05:07:28;11.73;;;10.47;;
15931;SDS011;8065;49.520;11.284;2023-05-02T05:09:56;13.80;;;11.03;;
15931;SDS011;8065;49.520;11.284;2023-05-02T05:12:22;13.10;;;11.00;;
15931;SDS011;8065;49.520;11.284;2023-05-02T05:14:49;11.43;;;10.33;;
15931;SDS011;8065;49.520;11.284;2023-05-02T05:17:15;12.20;;;10.97;;
15931;SDS011;8065;49.520;11.284;2023-05-02T05:19:42;11.90;;;10.40;;
15931;SDS011;8065;49.520;11.284;2023-05-02T05:22:08;11.97;;;10.60;;
15931;SDS011;8065;49.520;11.284;2023-05-02T05:24:35;11.27;;;10.13;;
15931;SDS011;8065;49.520;11.284;2023-05-02T05:27:04;12.43;;;11.23;;
15931;SDS011;8065;49.520;11.284;2023-05-02T05:29:30;12.83;;;10.50;;
15931;SDS011;8065;49.520;11.284;2023-05-02T05:31:57;11.13;;;9.93;;
15931;SDS011;8065;49.520;11.284;2023-05-02T05:34:24;11.27;;;10.17;;
15931;SDS011;8065;49.520;11.284;2023-05-02T05:36:51;11.73;;;10.50;;
15931;SDS011;8065;49.520;11.284;2023-05-02T05:39:17;13.07;;;11.60;;
15931;SDS011;8065;49.520;11.284;2023-05-02T05:41:43;13.43;;;11.27;;
15931;SDS011;8065;49.520;11.284;2023-05-02T05:44:11;12.77;;;11.47;;
15931;SDS011;8065;49.520;11.284;2023-05-02T05:46:38;12.17;;;10.87;;
15931;SDS011;8065;49.520;11.284;2023-05-02T05:49:04;13.93;;;11.77;;
15931;SDS011;8065;49.520;11.284;2023-05-02T05:51:31;15.33;;;11.80;;
15931;SDS011;8065;49.520;11.284;2023-05-02T05:53:57;11.60;;;10.40;;
15931;SDS011;8065;49.520;11.284;2023-05-02T05:56:24;13.27;;;11.27;;
15931;SDS011;8065;49.520;11.284;2023-05-02T05:58:51;13.27;;;11.83;;
15931;SDS011;8065;49.520;11.284;2023-05-02T06:01:20;14.23;;;11.27;;
15931;SDS011;8065;49.520;11.284;2023-05-02T06:03:46;15.33;;;11.30;;
15931;SDS011;8065;49.520;11.284;2023-05-02T06:06:13;12.33;;;11.13;;
15931;SDS011;8065;49.520;11.284;2023-05-02T06:08:39;14.83;;;13.13;;
15931;SDS011;8065;49.520;11.284;2023-05-02T06:11:07;12.90;;;11.60;;
15931;SDS011;8065;49.520;11.284;2023-05-02T06:13:34;16.40;;;12.77;;
15931;SDS011;8065;49.520;11.284;2023-05-02T06:16:01;13.73;;;12.20;;
15931;SDS011;8065;49.520;11.284;2023-05-02T06:18:28;12.70;;;11.40;;
15931;SDS011;8065;49.520;11.284;2023-05-02T06:20:55;12.40;;;11.10;;
15931;SDS011;8065;49.520;11.284;2023-05-02T06:23:22;13.73;;;12.30;;
15931;SDS011;8065;49.520;11.284;2023-05-02T06:25:48;13.93;;;12.53;;
15931;SDS011;8065;49.520;11.284;2023-05-02T06:28:15;12.60;;;11.37;;
15931;SDS011;8065;49.520;11.284;2023-05-02T06:30:41;15.27;;;12.03;;
15931;SDS011;8065;49.520;11.284;2023-05-02T06:33:08;15.47;;;11.90;;
15931;SDS011;8065;49.520;11.284;2023-05-02T06:35:37;16.03;;;12.00;;
15931;SDS011;8065;49.520;11.284;2023-05-02T06:38:04;14.90;;;13.07;;
15931;SDS011;8065;49.520;11.284;2023-05-02T06:40:30;14.40;;;12.83;;
15931;SDS011;8065;49.520;11.284;2023-05-02T06:42:56;14.50;;;12.93;;
15931;SDS011;8065;49.520;11.284;2023-05-02T06:45:23;17.93;;;14.00;;
15931;SDS011;8065;49.520;11.284;2023-05-02T06:47:49;16.43;;;14.67;;
15931;SDS011;8065;49.520;11.284;2023-05-02T06:50:16;16.33;;;14.60;;
15931;SDS011;8065;49.520;11.284;2023-05-02T06:52:44;15.67;;;12.80;;
15931;SDS011;8065;49.520;11.284;2023-05-02T06:55:10;14.43;;;13.00;;
15931;SDS011;8065;49.520;11.284;2023-05-02T06:57:37;15.80;;;13.10;;
15931;SDS011;8065;49.520;11.284;2023-05-02T07:00:03;15.77;;;13.70;;
15931;SDS011;8065;49.520;11.284;2023-05-02T07:02:31;15.97;;;14.23;;
15931;SDS011;8065;49.520;11.284;2023-05-02T07:04:57;14.60;;;13.13;;
15931;SDS011;8065;49.520;11.284;2023-05-02T07:07:24;19.33;;;13.80;;
15931;SDS011;8065;49.520;11.284;2023-05-02T07:09:51;15.03;;;13.50;;
15931;SDS011;8065;49.520;11.284;2023-05-02T07:12:18;16.50;;;13.80;;
15931;SDS011;8065;49.520;11.284;2023-05-02T07:14:44;17.30;;;13.57;;
15931;SDS011;8065;49.520;11.284;2023-05-02T07:17:11;15.47;;;13.93;;
15931;SDS011;8065;49.520;11.284;2023-05-02T07:19:38;14.57;;;13.07;;
15931;SDS011;8065;49.520;11.284;2023-05-02T07:22:04;14.90;;;13.40;;
15931;SDS011;8065;49.520;11.284;2023-05-02T07:24:31;15.63;;;13.03;;
15931;SDS011;8065;49.520;11.284;2023-05-02T07:26:59;16.53;;;14.23;;
15931;SDS011;8065;49.520;11.284;2023-05-02T07:29:27;16.17;;;14.17;;
15931;SDS011;8065;49.520;11.284;2023-05-02T07:31:53;15.17;;;13.47;;
15931;SDS011;8065;49.520;11.284;2023-05-02T07:34:20;15.83;;;13.23;;
15931;SDS011;8065;49.520;11.284;2023-05-02T07:36:46;14.77;;;13.23;;
15931;SDS011;8065;49.520;11.284;2023-05-02T07:39:13;14.63;;;13.13;;
15931;SDS011;8065;49.520;11.284;2023-05-02T07:41:40;14.93;;;13.37;;
15931;SDS011;8065;49.520;11.284;2023-05-02T07:44:07;13.77;;;12.40;;
15931;SDS011;8065;49.520;11.284;2023-05-02T07:46:34;14.17;;;12.67;;
15931;SDS011;8065;49.520;11.284;2023-05-02T07:49:00;14.50;;;13.00;;
15931;SDS011;8065;49.520;11.284;2023-05-02T07:51:27;16.83;;;14.17;;
15931;SDS011;8065;49.520;11.284;2023-05-02T07:53:53;15.93;;;14.17;;
15931;SDS011;8065;49.520;11.284;2023-05-02T07:56:22;14.90;;;13.27;;
15931;SDS011;8065;49.520;11.284;2023-05-02T07:58:49;14.70;;;13.10;;
15931;SDS011;8065;49.520;11.284;2023-05-02T08:01:17;14.53;;;13.03;;
15931;SDS011;8065;49.520;11.284;2023-05-02T08:03:44;18.20;;;15.03;;
15931;SDS011;8065;49.520;11.284;2023-05-02T08:06:11;15.93;;;14.23;;
15931;SDS011;8065;49.520;11.284;2023-05-02T08:08:38;16.40;;;13.90;;
15931;SDS011;8065;49.520;11.284;2023-05-02T08:11:06;15.27;;;13.67;;
15931;SDS011;8065;49.520;11.284;2023-05-02T08:13:32;14.70;;;13.20;;
15931;SDS011;8065;49.520;11.284;2023-05-02T08:15:58;14.80;;;13.20;;
15931;SDS011;8065;49.520;11.284;2023-05-02T08:18:27;13.77;;;12.37;;
15931;SDS011;8065;49.520;11.284;2023-05-02T08:20:54;14.90;;;13.27;;
15931;SDS011;8065;49.520;11.284;2023-05-02T08:23:22;14.37;;;12.97;;
15931;SDS011;8065;49.520;11.284;2023-05-02T08:25:48;14.43;;;12.57;;
15931;SDS011;8065;49.520;11.284;2023-05-02T08:28:15;15.50;;;12.87;;
15931;SDS011;8065;49.520;11.284;2023-05-02T08:30:42;13.33;;;11.93;;
15931;SDS011;8065;49.520;11.284;2023-05-02T08:33:09;16.97;;;13.23;;
15931;SDS011;8065;49.520;11.284;2023-05-02T08:35:37;14.30;;;12.80;;
15931;SDS011;8065;49.520;11.284;2023-05-02T08:38:03;13.13;;;11.83;;
15931;SDS011;8065;49.520;11.284;2023-05-02T08:40:30;16.90;;;12.57;;
15931;SDS011;8065;49.520;11.284;2023-05-02T08:43:00;13.57;;;12.17;;
15931;SDS011;8065;49.520;11.284;2023-05-02T08:45:26;13.20;;;11.90;;
15931;SDS011;8065;49.520;11.284;2023-05-02T08:48:01;13.87;;;12.47;;
15931;SDS011;8065;49.520;11.284;2023-05-02T08:50:32;13.07;;;11.77;;
15931;SDS011;8065;49.520;11.284;2023-05-02T08:53:01;15.03;;;12.87;;
15931;SDS011;8065;49.520;11.284;2023-05-02T08:55:29;13.43;;;12.03;;
15931;SDS011;8065;49.520;11.284;2023-05-02T08:57:56;13.20;;;11.77;;
15931;SDS011;8065;49.520;11.284;2023-05-02T09:00:23;12.40;;;11.20;;
15931;SDS011;8065;49.520;11.284;2023-05-02T09:02:52;11.90;;;10.37;;
15931;SDS011;8065;49.520;11.284;2023-05-02T09:05:29;12.67;;;11.43;;
15931;SDS011;8065;49.520;11.284;2023-05-02T09:08:04;12.90;;;11.60;;
15931;SDS011;8065;49.520;11.284;2023-05-02T09:10:32;11.73;;;10.63;;
15931;SDS011;8065;49.520;11.284;2023-05-02T09:15:55;11.40;;;10.30;;
15931;SDS011;8065;49.520;11.284;2023-05-02T09:18:23;12.03;;;10.90;;
15931;SDS011;8065;49.520;11.284;2023-05-02T09:20:50;11.10;;;10.00;;
15931;SDS011;8065;49.520;11.284;2023-05-02T09:23:18;11.53;;;10.43;;
15931;SDS011;8065;49.520;11.284;2023-05-02T09:25:45;11.17;;;10.17;;
15931;SDS011;8065;49.520;11.284;2023-05-02T09:28:11;12.57;;;11.03;;
15931;SDS011;8065;49.520;11.284;2023-05-02T09:30:38;11.90;;;10.70;;
15931;SDS011;8065;49.520;11.284;2023-05-02T09:33:04;13.67;;;11.93;;
15931;SDS011;8065;49.520;11.284;2023-05-02T09:35:30;12.03;;;10.77;;
15931;SDS011;8065;49.520;11.284;2023-05-02T09:37:57;12.00;;;10.80;;
15931;SDS011;8065;49.520;11.284;2023-05-02T09:40:25;12.43;;;10.20;;
15931;SDS011;8065;49.520;11.284;2023-05-02T09:42:54;12.50;;;11.20;;
15931;SDS011;8065;49.520;11.284;2023-05-02T09:45:22;10.73;;;9.63;;
15931;SDS011;8065;49.520;11.284;2023-05-02T09:47:49;11.03;;;9.93;;
15931;SDS011;8065;49.520;11.284;2023-05-02T09:50:32;10.57;;;9.43;;
15931;SDS011;8065;49.520;11.284;2023-05-02T09:53:01;10.40;;;9.40;;
15931;SDS011;8065;49.520;11.284;2023-05-02T09:55:30;9.90;;;9.00;;
15931;SDS011;8065;49.520;11.284;2023-05-02T09:57:57;9.83;;;8.83;;
15931;SDS011;8065;49.520;11.284;2023-05-02T10:00:36;9.23;;;8.37;;
15931;SDS011;8065;49.520;11.284;2023-05-02T10:03:05;10.47;;;9.47;;
15931;SDS011;8065;49.520;11.284;2023-05-02T10:05:33;9.40;;;8.57;;
15931;SDS011;8065;49.520;11.284;2023-05-02T10:08:02;10.80;;;9.80;;
15931;SDS011;8065;49.520;11.284;2023-05-02T10:10:32;10.40;;;9.30;;
15931;SDS011;8065;49.520;11.284;2023-05-02T10:13:02;9.57;;;8.67;;
15931;SDS011;8065;49.520;11.284;2023-05-02T10:15:29;9.33;;;8.43;;
15931;SDS011;8065;49.520;11.284;2023-05-02T10:17:58;10.30;;;8.90;;
15931;SDS011;8065;49.520;11.284;2023-05-02T10:20:27;10.00;;;9.00;;
15931;SDS011;8065;49.520;11.284;2023-05-02T10:22:57;9.03;;;8.13;;
15931;SDS011;8065;49.520;11.284;2023-05-02T10:25:25;10.27;;;9.00;;
15931;SDS011;8065;49.520;11.284;2023-05-02T10:27:53;10.43;;;9.47;;
15931;SDS011;8065;49.520;11.284;2023-05-02T10:30:21;10.90;;;9.80;;
15931;SDS011;8065;49.520;11.284;2023-05-02T10:32:48;11.53;;;10.43;;
15931;SDS011;8065;49.520;11.284;2023-05-02T10:35:17;9.50;;;8.60;;
15931;SDS011;8065;49.520;11.284;2023-05-02T10:37:44;10.07;;;8.90;;
15931;SDS011;8065;49.520;11.284;2023-05-02T10:40:12;9.97;;;8.50;;
15931;SDS011;8065;49.520;11.284;2023-05-02T10:42:41;9.60;;;8.70;;
15931;SDS011;8065;49.520;11.284;2023-05-02T10:45:12;10.30;;;9.23;;
15931;SDS011;8065;49.520;11.284;2023-05-02T10:50:43;9.67;;;8.30;;
15931;SDS011;8065;49.520;11.284;2023-05-02T10:53:24;9.50;;;8.50;;
15931;SDS011;8065;49.520;11.284;2023-05-02T10:56:08;9.07;;;7.70;;
15931;SDS011;8065;49.520;11.284;2023-05-02T10:58:39;7.97;;;7.27;;
15931;SDS011;8065;49.520;11.284;2023-05-02T11:04:06;8.70;;;7.60;;
15931;SDS011;8065;49.520;11.284;2023-05-02T11:06:34;8.00;;;7.30;;
15931;SDS011;8065;49.520;11.284;2023-05-02T11:11:58;8.20;;;6.47;;
15931;SDS011;8065;49.520;11.284;2023-05-02T11:14:44;7.00;;;6.07;;
15931;SDS011;8065;49.520;11.284;2023-05-02T11:17:14;8.80;;;7.80;;
15931;SDS011;8065;49.520;11.284;2023-05-02T11:22:54;7.20;;;5.90;;
15931;SDS011;8065;49.520;11.284;2023-05-02T11:25:32;8.93;;;5.20;;
15931;SDS011;8065;49.520;11.284;2023-05-02T11:28:05;5.37;;;4.87;;
15931;SDS011;8065;49.520;11.284;2023-05-02T11:30:37;6.00;;;5.50;;
15931;SDS011;8065;49.520;11.284;2023-05-02T11:33:12;7.40;;;5.37;;
15931;SDS011;8065;49.520;11.284;2023-05-02T11:35:41;5.57;;;4.93;;
15931;SDS011;8065;49.520;11.284;2023-05-02T11:38:09;5.87;;;4.83;;
15931;SDS011;8065;49.520;11.284;2023-05-02T11:40:37;4.97;;;4.50;;
15931;SDS011;8065;49.520;11.284;2023-05-02T11:43:11;4.90;;;4.30;;
15931;SDS011;8065;49.520;11.284;2023-05-02T11:45:39;4.40;;;4.00;;
15931;SDS011;8065;49.520;11.284;2023-05-02T11:48:06;4.93;;;4.53;;
15931;SDS011;8065;49.520;11.284;2023-05-02T11:50:39;5.97;;;5.40;;
15931;SDS011;8065;49.520;11.284;2023-05-02T11:53:09;5.20;;;4.80;;
15931;SDS011;8065;49.520;11.284;2023-05-02T11:55:36;5.43;;;4.83;;
15931;SDS011;8065;49.520;11.284;2023-05-02T11:58:03;5.60;;;5.10;;
15931;SDS011;8065;49.520;11.284;2023-05-02T12:00:29;5.03;;;4.63;;
15931;SDS011;8065;49.520;11.284;2023-05-02T12:02:56;5.13;;;4.63;;
15931;SDS011;8065;49.520;11.284;2023-05-02T12:05:26;5.50;;;4.20;;
15931;SDS011;8065;49.520;11.284;2023-05-02T12:07:55;6.67;;;4.80;;
15931;SDS011;8065;49.520;11.284;2023-05-02T12:10:21;6.43;;;4.90;;
15931;SDS011;8065;49.520;11.284;2023-05-02T12:12:48;5.90;;;4.83;;
15931;SDS011;8065;49.520;11.284;2023-05-02T12:15:15;6.50;;;4.63;;
15931;SDS011;8065;49.520;11.284;2023-05-02T12:17:42;4.70;;;4.23;;
15931;SDS011;8065;49.520;11.284;2023-05-02T12:20:13;4.27;;;3.93;;
15931;SDS011;8065;49.520;11.284;2023-05-02T12:22:40;4.07;;;3.53;;
15931;SDS011;8065;49.520;11.284;2023-05-02T12:25:08;4.47;;;4.07;;
15931;SDS011;8065;49.520;11.284;2023-05-02T12:27:35;5.43;;;4.80;;
15931;SDS011;8065;49.520;11.284;2023-05-02T12:30:02;5.33;;;4.47;;
15931;SDS011;8065;49.520;11.284;2023-05-02T12:32:29;4.27;;;3.87;;
15931;SDS011;8065;49.520;11.284;2023-05-02T12:34:57;5.47;;;4.70;;
15931;SDS011;8065;49.520;11.284;2023-05-02T12:37:24;3.90;;;3.60;;
15931;SDS011;8065;49.520;11.284;2023-05-02T12:39:52;5.33;;;4.83;;
15931;SDS011;8065;49.520;11.284;2023-05-02T12:42:21;5.67;;;3.83;;
15931;SDS011;8065;49.520;11.284;2023-05-02T12:44:49;5.20;;;4.67;;
15931;SDS011;8065;49.520;11.284;2023-05-02T12:47:17;4.80;;;4.40;;
15931;SDS011;8065;49.520;11.284;2023-05-02T12:49:48;5.93;;;5.00;;
15931;SDS011;8065;49.520;11.284;2023-05-02T12:52:15;6.03;;;4.70;;
15931;SDS011;8065;49.520;11.284;2023-05-02T12:54:42;5.50;;;5.00;;
15931;SDS011;8065;49.520;11.284;2023-05-02T12:57:08;4.33;;;3.90;;
15931;SDS011;8065;49.520;11.284;2023-05-02T12:59:37;5.13;;;4.63;;
15931;SDS011;8065;49.520;11.284;2023-05-02T13:02:04;5.50;;;5.00;;
15931;SDS011;8065;49.520;11.284;2023-05-02T13:04:34;5.40;;;4.90;;
15931;SDS011;8065;49.520;11.284;2023-05-02T13:07:01;5.23;;;4.60;;
15931;SDS011;8065;49.520;11.284;2023-05-02T13:09:27;4.67;;;4.27;;
15931;SDS011;8065;49.520;11.284;2023-05-02T13:11:54;3.87;;;3.57;;
15931;SDS011;8065;49.520;11.284;2023-05-02T13:14:21;3.60;;;3.30;;
15931;SDS011;8065;49.520;11.284;2023-05-02T13:16:49;5.97;;;4.23;;
15931;SDS011;8065;49.520;11.284;2023-05-02T13:19:17;5.73;;;3.70;;
15931;SDS011;8065;49.520;11.284;2023-05-02T13:21:43;5.23;;;4.20;;
15931;SDS011;8065;49.520;11.284;2023-05-02T13:24:10;4.43;;;3.47;;
15931;SDS011;8065;49.520;11.284;2023-05-02T13:26:37;7.70;;;5.90;;
15931;SDS011;8065;49.520;11.284;2023-05-02T13:29:03;7.90;;;5.30;;
15931;SDS011;8065;49.520;11.284;2023-05-02T13:31:30;5.53;;;4.57;;
15931;SDS011;8065;49.520;11.284;2023-05-02T13:33:57;6.07;;;5.50;;
15931;SDS011;8065;49.520;11.284;2023-05-02T13:36:24;5.13;;;4.67;;
15931;SDS011;8065;49.520;11.284;2023-05-02T13:38:51;4.30;;;3.90;;
15931;SDS011;8065;49.520;11.284;2023-05-02T13:41:17;4.20;;;3.80;;
15931;SDS011;8065;49.520;11.284;2023-05-02T13:43:44;5.03;;;3.67;;
15931;SDS011;8065;49.520;11.284;2023-05-02T13:46:10;4.37;;;3.90;;
15931;SDS011;8065;49.520;11.284;2023-05-02T13:48:36;4.83;;;3.40;;
15931;SDS011;8065;49.520;11.284;2023-05-02T13:51:04;4.63;;;3.73;;
15931;SDS011;8065;49.520;11.284;2023-05-02T13:53:31;4.10;;;3.77;;
15931;SDS011;8065;49.520;11.284;2023-05-02T13:55:58;4.37;;;3.50;;
15931;SDS011;8065;49.520;11.284;2023-05-02T13:58:24;3.63;;;3.17;;
15931;SDS011;8065;49.520;11.284;2023-05-02T14:00:51;2.57;;;2.37;;
15931;SDS011;8065;49.520;11.284;2023-05-02T14:03:17;3.10;;;2.90;;
15931;SDS011;8065;49.520;11.284;2023-05-02T14:05:44;2.77;;;2.50;;
15931;SDS011;8065;49.520;11.284;2023-05-02T14:08:11;3.57;;;3.20;;
15931;SDS011;8065;49.520;11.284;2023-05-02T14:10:42;4.70;;;2.70;;
15931;SDS011;8065;49.520;11.284;2023-05-02T14:13:08;2.53;;;2.33;;
15931;SDS011;8065;49.520;11.284;2023-05-02T14:15:35;2.87;;;2.50;;
15931;SDS011;8065;49.520;11.284;2023-05-02T14:18:02;2.77;;;2.57;;
15931;SDS011;8065;49.520;11.284;2023-05-02T14:20:28;2.17;;;2.00;;
15931;SDS011;8065;49.520;11.284;2023-05-02T14:22:55;2.90;;;2.60;;
15931;SDS011;8065;49.520;11.284;2023-05-02T14:25:22;2.93;;;1.90;;
15931;SDS011;8065;49.520;11.284;2023-05-02T14:27:49;1.87;;;1.77;;
15931;SDS011;8065;49.520;11.284;2023-05-02T14:30:15;1.90;;;1.80;;
15931;SDS011;8065;49.520;11.284;2023-05-02T14:32:42;1.83;;;1.73;;
15931;SDS011;8065;49.520;11.284;2023-05-02T14:35:09;1.80;;;1.70;;
15931;SDS011;8065;49.520;11.284;2023-05-02T14:37:35;1.80;;;1.60;;
15931;SDS011;8065;49.520;11.284;2023-05-02T14:40:02;1.57;;;1.40;;
15931;SDS011;8065;49.520;11.284;2023-05-02T14:42:30;1.57;;;1.47;;
15931;SDS011;8065;49.520;11.284;2023-05-02T14:44:56;2.53;;;1.60;;
15931;SDS011;8065;49.520;11.284;2023-05-02T14:47:26;1.30;;;1.30;;
15931;SDS011;8065;49.520;11.284;2023-05-02T14:49:54;1.40;;;1.30;;
15931;SDS011;8065;49.520;11.284;2023-05-02T14:52:21;1.20;;;1.20;;